sensor_id;sensor_type;location;lat;lon;timestamp;pressure;altitude;pressure_sealevel;temperature;humidity
18137;BME280;9194;42.632;23.298;2022-07-04T00:03:31;92866.69;;;19.20;100.00
18137;BME280;9194;42.632;23.298;2022-07-04T00:08:32;92862.50;;;19.14;100.00
18137;BME280;9194;42.632;23.298;2022-07-04T00:13:33;92875.91;;;19.23;100.00
18137;BME280;9194;42.632;23.298;2022-07-04T00:18:35;92870.41;;;19.09;100.00
18137;BME280;9194;42.632;23.298;2022-07-04T00:23:36;92882.81;;;18.99;100.00
18137;BME280;9194;42.632;23.298;2022-07-04T00:28:37;92877.84;;;18.92;100.00
18137;BME280;9194;42.632;23.298;2022-07-04T00:33:39;92857.25;;;18.79;100.00
18137;BME280;9194;42.632;23.298;2022-07-04T00:38:40;92850.41;;;18.78;100.00
18137;BME280;9194;42.632;23.298;2022-07-04T00:43:41;92848.28;;;18.70;100.00
18137;BME280;9194;42.632;23.298;2022-07-04T00:48:42;92862.78;;;18.72;100.00
18137;BME280;9194;42.632;23.298;2022-07-04T00:53:45;92858.03;;;18.54;100.00
18137;BME280;9194;42.632;23.298;2022-07-04T00:58:46;92846.19;;;18.57;100.00
18137;BME280;9194;42.632;23.298;2022-07-04T01:03:49;92839.88;;;18.58;100.00
18137;BME280;9194;42.632;23.298;2022-07-04T01:08:50;92844.28;;;18.52;100.00
18137;BME280;9194;42.632;23.298;2022-07-04T01:13:54;92846.69;;;18.43;100.00
18137;BME280;9194;42.632;23.298;2022-07-04T01:18:55;92850.38;;;18.37;100.00
18137;BME280;9194;42.632;23.298;2022-07-04T01:23:56;92843.00;;;18.34;100.00
18137;BME280;9194;42.632;23.298;2022-07-04T01:28:58;92850.63;;;18.36;100.00
18137;BME280;9194;42.632;23.298;2022-07-04T01:33:59;92861.97;;;18.36;100.00
18137;BME280;9194;42.632;23.298;2022-07-04T01:39:01;92847.72;;;18.27;100.00
18137;BME280;9194;42.632;23.298;2022-07-04T01:44:03;92848.53;;;18.33;100.00
18137;BME280;9194;42.632;23.298;2022-07-04T01:49:04;92846.94;;;18.22;100.00
18137;BME280;9194;42.632;23.298;2022-07-04T01:54:06;92854.56;;;18.23;100.00
18137;BME280;9194;42.632;23.298;2022-07-04T01:59:09;92852.72;;;18.19;100.00
18137;BME280;9194;42.632;23.298;2022-07-04T02:04:10;92856.69;;;18.16;100.00
18137;BME280;9194;42.632;23.298;2022-07-04T02:09:11;92847.94;;;18.05;100.00
18137;BME280;9194;42.632;23.298;2022-07-04T02:14:16;92849.78;;;18.00;100.00
18137;BME280;9194;42.632;23.298;2022-07-04T02:19:17;92851.91;;;18.03;100.00
18137;BME280;9194;42.632;23.298;2022-07-04T02:24:19;92855.31;;;17.93;100.00
18137;BME280;9194;42.632;23.298;2022-07-04T02:29:21;92864.50;;;17.91;100.00
18137;BME280;9194;42.632;23.298;2022-07-04T02:34:22;92856.63;;;17.91;100.00
18137;BME280;9194;42.632;23.298;2022-07-04T02:39:24;92850.25;;;17.77;100.00
18137;BME280;9194;42.632;23.298;2022-07-04T02:44:25;92861.84;;;17.81;100.00
18137;BME280;9194;42.632;23.298;2022-07-04T02:49:26;92868.94;;;17.75;100.00
18137;BME280;9194;42.632;23.298;2022-07-04T02:54:28;92873.13;;;17.71;100.00
18137;BME280;9194;42.632;23.298;2022-07-04T02:59:30;92875.25;;;17.74;100.00
18137;BME280;9194;42.632;23.298;2022-07-04T03:04:31;92882.66;;;17.82;100.00
18137;BME280;9194;42.632;23.298;2022-07-04T03:09:32;92878.13;;;17.68;100.00
18137;BME280;9194;42.632;23.298;2022-07-04T03:14:34;92880.53;;;17.74;100.00
18137;BME280;9194;42.632;23.298;2022-07-04T03:19:35;92880.53;;;17.74;100.00
18137;BME280;9194;42.632;23.298;2022-07-04T03:24:37;92891.31;;;17.73;100.00
18137;BME280;9194;42.632;23.298;2022-07-04T03:29:41;92900.03;;;17.83;100.00
18137;BME280;9194;42.632;23.298;2022-07-04T03:34:43;92889.00;;;17.91;100.00
18137;BME280;9194;42.632;23.298;2022-07-04T03:39:44;92876.13;;;18.00;100.00
18137;BME280;9194;42.632;23.298;2022-07-04T03:44:45;92888.53;;;18.04;100.00
18137;BME280;9194;42.632;23.298;2022-07-04T03:49:46;92885.38;;;18.13;100.00
18137;BME280;9194;42.632;23.298;2022-07-04T03:54:48;92886.72;;;18.15;100.00
18137;BME280;9194;42.632;23.298;2022-07-04T03:59:49;92891.75;;;18.32;100.00
18137;BME280;9194;42.632;23.298;2022-07-04T04:04:50;92883.84;;;18.42;100.00
18137;BME280;9194;42.632;23.298;2022-07-04T04:10:11;92871.44;;;18.53;100.00
18137;BME280;9194;42.632;23.298;2022-07-04T04:15:12;92871.50;;;18.68;100.00
18137;BME280;9194;42.632;23.298;2022-07-04T04:20:13;92887.84;;;18.80;100.00
18137;BME280;9194;42.632;23.298;2022-07-04T04:25:15;92894.16;;;18.94;100.00
18137;BME280;9194;42.632;23.298;2022-07-04T04:30:16;92897.06;;;19.03;100.00
18137;BME280;9194;42.632;23.298;2022-07-04T04:35:17;92892.84;;;19.07;99.06
18137;BME280;9194;42.632;23.298;2022-07-04T04:40:20;92901.28;;;19.14;100.00
18137;BME280;9194;42.632;23.298;2022-07-04T04:45:22;92912.09;;;19.17;100.00
18137;BME280;9194;42.632;23.298;2022-07-04T04:50:24;92902.53;;;19.42;100.00
18137;BME280;9194;42.632;23.298;2022-07-04T04:55:25;92895.13;;;19.59;100.00
18137;BME280;9194;42.632;23.298;2022-07-04T05:00:26;92891.66;;;19.74;99.54
18137;BME280;9194;42.632;23.298;2022-07-04T05:05:28;92894.50;;;19.87;98.18
18137;BME280;9194;42.632;23.298;2022-07-04T05:10:29;92905.50;;;20.04;96.72
18137;BME280;9194;42.632;23.298;2022-07-04T05:15:30;92896.44;;;20.26;93.55
18137;BME280;9194;42.632;23.298;2022-07-04T05:20:32;92887.94;;;20.29;93.80
18137;BME280;9194;42.632;23.298;2022-07-04T05:25:34;92892.69;;;20.37;91.72
18137;BME280;9194;42.632;23.298;2022-07-04T05:30:35;92883.38;;;20.49;93.24
18137;BME280;9194;42.632;23.298;2022-07-04T05:35:36;92879.06;;;20.59;93.63
18137;BME280;9194;42.632;23.298;2022-07-04T05:40:38;92891.94;;;20.70;89.57
18137;BME280;9194;42.632;23.298;2022-07-04T05:45:39;92897.81;;;20.62;88.63
18137;BME280;9194;42.632;23.298;2022-07-04T05:50:41;92897.19;;;20.75;87.40
18137;BME280;9194;42.632;23.298;2022-07-04T05:55:42;92909.88;;;20.78;86.91
18137;BME280;9194;42.632;23.298;2022-07-04T06:00:43;92897.56;;;20.92;86.22
18137;BME280;9194;42.632;23.298;2022-07-04T06:05:45;92899.28;;;21.12;87.49
18137;BME280;9194;42.632;23.298;2022-07-04T06:10:46;92902.38;;;21.24;82.18
18137;BME280;9194;42.632;23.298;2022-07-04T06:21:13;92899.59;;;21.63;86.85
18137;BME280;9194;42.632;23.298;2022-07-04T06:26:14;92887.19;;;21.83;85.08
18137;BME280;9194;42.632;23.298;2022-07-04T06:31:16;92894.19;;;21.97;82.88
18137;BME280;9194;42.632;23.298;2022-07-04T06:36:19;92895.28;;;22.15;81.55
18137;BME280;9194;42.632;23.298;2022-07-04T06:41:20;92898.50;;;22.31;84.04
18137;BME280;9194;42.632;23.298;2022-07-04T06:46:22;92897.59;;;22.40;82.20
18137;BME280;9194;42.632;23.298;2022-07-04T06:51:23;92884.63;;;22.58;80.28
18137;BME280;9194;42.632;23.298;2022-07-04T06:56:25;92883.19;;;22.65;82.36
18137;BME280;9194;42.632;23.298;2022-07-04T07:01:27;92881.75;;;22.91;81.13
18137;BME280;9194;42.632;23.298;2022-07-04T07:06:29;92884.03;;;22.98;79.33
18137;BME280;9194;42.632;23.298;2022-07-04T07:11:30;92885.63;;;22.99;77.51
18137;BME280;9194;42.632;23.298;2022-07-04T07:16:32;92877.41;;;23.28;82.67
18137;BME280;9194;42.632;23.298;2022-07-04T07:21:33;92873.25;;;23.54;80.86
18137;BME280;9194;42.632;23.298;2022-07-04T07:26:34;92861.84;;;23.67;75.01
18137;BME280;9194;42.632;23.298;2022-07-04T07:31:36;92867.34;;;23.71;74.33
18137;BME280;9194;42.632;23.298;2022-07-04T07:36:37;92859.38;;;23.98;76.50
18137;BME280;9194;42.632;23.298;2022-07-04T07:41:38;92863.28;;;24.14;71.30
18137;BME280;9194;42.632;23.298;2022-07-04T07:46:40;92858.66;;;24.34;73.18
18137;BME280;9194;42.632;23.298;2022-07-04T07:51:41;92862.72;;;24.53;76.15
18137;BME280;9194;42.632;23.298;2022-07-04T07:56:43;92862.78;;;24.40;69.08
18137;BME280;9194;42.632;23.298;2022-07-04T08:01:45;92853.59;;;24.46;69.57
18137;BME280;9194;42.632;23.298;2022-07-04T08:06:47;92854.41;;;24.69;72.37
18137;BME280;9194;42.632;23.298;2022-07-04T08:11:48;92853.66;;;24.90;67.73
18137;BME280;9194;42.632;23.298;2022-07-04T08:16:50;92849.78;;;24.97;66.93
18137;BME280;9194;42.632;23.298;2022-07-04T08:21:52;92849.81;;;25.27;69.50
18137;BME280;9194;42.632;23.298;2022-07-04T08:26:54;92852.22;;;25.46;63.97
18137;BME280;9194;42.632;23.298;2022-07-04T08:31:55;92845.31;;;25.67;66.44
18137;BME280;9194;42.632;23.298;2022-07-04T08:36:56;92841.41;;;25.73;64.15
18137;BME280;9194;42.632;23.298;2022-07-04T08:42:02;92842.25;;;26.00;66.97
18137;BME280;9194;42.632;23.298;2022-07-04T08:47:07;92831.63;;;26.17;67.29
18137;BME280;9194;42.632;23.298;2022-07-04T08:52:10;92833.56;;;26.42;65.84
18137;BME280;9194;42.632;23.298;2022-07-04T08:57:13;92828.38;;;26.63;66.56
18137;BME280;9194;42.632;23.298;2022-07-04T09:02:34;92834.97;;;26.74;64.25
18137;BME280;9194;42.632;23.298;2022-07-04T09:07:35;92823.81;;;26.81;61.67
18137;BME280;9194;42.632;23.298;2022-07-04T09:12:37;92830.56;;;27.04;65.94
18137;BME280;9194;42.632;23.298;2022-07-04T09:17:38;92837.63;;;27.09;63.11
18137;BME280;9194;42.632;23.298;2022-07-04T09:22:40;92822.84;;;27.20;62.32
18137;BME280;9194;42.632;23.298;2022-07-04T09:27:46;92828.28;;;27.41;61.98
18137;BME280;9194;42.632;23.298;2022-07-04T09:32:53;92824.88;;;27.31;57.69
18137;BME280;9194;42.632;23.298;2022-07-04T09:38:04;92817.56;;;27.58;58.48
18137;BME280;9194;42.632;23.298;2022-07-04T09:43:11;92814.22;;;27.61;58.11
18137;BME280;9194;42.632;23.298;2022-07-04T09:48:12;92816.84;;;27.78;60.44
18137;BME280;9194;42.632;23.298;2022-07-04T09:53:13;92817.41;;;27.92;61.57
18137;BME280;9194;42.632;23.298;2022-07-04T09:58:15;92813.03;;;27.88;58.27
18137;BME280;9194;42.632;23.298;2022-07-04T10:08:18;92819.69;;;28.32;57.60
18137;BME280;9194;42.632;23.298;2022-07-04T10:13:20;92818.19;;;28.43;58.17
18137;BME280;9194;42.632;23.298;2022-07-04T10:18:22;92817.16;;;28.56;56.58
18137;BME280;9194;42.632;23.298;2022-07-04T10:23:24;92819.72;;;28.52;56.48
18137;BME280;9194;42.632;23.298;2022-07-04T10:28:32;92811.31;;;28.42;56.11
18137;BME280;9194;42.632;23.298;2022-07-04T10:33:34;92814.28;;;28.61;57.75
18137;BME280;9194;42.632;23.298;2022-07-04T10:38:51;92812.53;;;28.65;56.24
18137;BME280;9194;42.632;23.298;2022-07-04T10:43:55;92798.09;;;28.78;57.67
18137;BME280;9194;42.632;23.298;2022-07-04T10:49:18;92807.53;;;28.96;56.96
18137;BME280;9194;42.632;23.298;2022-07-04T10:54:37;92800.16;;;29.26;55.23
18137;BME280;9194;42.632;23.298;2022-07-04T10:59:41;92780.19;;;29.36;54.20
18137;BME280;9194;42.632;23.298;2022-07-04T11:05:11;92776.13;;;29.30;54.76
18137;BME280;9194;42.632;23.298;2022-07-04T11:15:17;92771.88;;;28.42;58.33
18137;BME280;9194;42.632;23.298;2022-07-04T11:20:20;92773.28;;;27.98;61.14
18137;BME280;9194;42.632;23.298;2022-07-04T11:25:22;92777.06;;;27.68;60.24
18137;BME280;9194;42.632;23.298;2022-07-04T11:30:23;92772.16;;;28.49;54.44
18137;BME280;9194;42.632;23.298;2022-07-04T11:35:25;92779.41;;;29.03;54.83
18137;BME280;9194;42.632;23.298;2022-07-04T11:40:44;92766.00;;;29.35;54.50
18137;BME280;9194;42.632;23.298;2022-07-04T11:46:10;92761.41;;;29.36;52.56
18137;BME280;9194;42.632;23.298;2022-07-04T11:51:17;92757.63;;;29.49;52.46
18137;BME280;9194;42.632;23.298;2022-07-04T11:56:18;92740.44;;;29.50;53.51
18137;BME280;9194;42.632;23.298;2022-07-04T12:01:29;92734.81;;;29.43;54.11
18137;BME280;9194;42.632;23.298;2022-07-04T12:06:31;92720.06;;;29.49;53.83
18137;BME280;9194;42.632;23.298;2022-07-04T12:12:05;92714.84;;;29.53;53.20
18137;BME280;9194;42.632;23.298;2022-07-04T12:22:11;92720.63;;;29.43;53.29
18137;BME280;9194;42.632;23.298;2022-07-04T12:27:19;92711.81;;;29.54;52.88
18137;BME280;9194;42.632;23.298;2022-07-04T12:32:21;92715.59;;;29.65;53.91
18137;BME280;9194;42.632;23.298;2022-07-04T12:37:22;92711.59;;;29.35;54.23
18137;BME280;9194;42.632;23.298;2022-07-04T12:42:23;92702.09;;;29.50;55.10
18137;BME280;9194;42.632;23.298;2022-07-04T12:47:25;92707.69;;;29.45;53.91
18137;BME280;9194;42.632;23.298;2022-07-04T12:52:27;92708.22;;;29.62;51.85
18137;BME280;9194;42.632;23.298;2022-07-04T12:57:29;92707.78;;;29.36;52.62
18137;BME280;9194;42.632;23.298;2022-07-04T13:02:30;92703.75;;;29.54;54.05
18137;BME280;9194;42.632;23.298;2022-07-04T13:07:31;92696.56;;;30.07;53.03
18137;BME280;9194;42.632;23.298;2022-07-04T13:12:33;92695.69;;;30.03;53.42
18137;BME280;9194;42.632;23.298;2022-07-04T13:17:34;92693.31;;;29.89;53.44
18137;BME280;9194;42.632;23.298;2022-07-04T13:22:35;92679.94;;;29.65;53.02
18137;BME280;9194;42.632;23.298;2022-07-04T13:27:37;92679.75;;;29.46;54.70
18137;BME280;9194;42.632;23.298;2022-07-04T13:32:38;92683.19;;;29.58;51.51
18137;BME280;9194;42.632;23.298;2022-07-04T13:37:40;92680.47;;;29.70;53.22
18137;BME280;9194;42.632;23.298;2022-07-04T13:42:41;92669.72;;;30.07;53.47
18137;BME280;9194;42.632;23.298;2022-07-04T13:48:00;92663.94;;;29.93;52.80
18137;BME280;9194;42.632;23.298;2022-07-04T13:53:07;92664.28;;;29.67;54.86
18137;BME280;9194;42.632;23.298;2022-07-04T13:58:09;92653.81;;;29.50;55.29
18137;BME280;9194;42.632;23.298;2022-07-04T14:03:11;92656.38;;;29.46;53.59
18137;BME280;9194;42.632;23.298;2022-07-04T14:08:13;92649.00;;;29.43;53.81
18137;BME280;9194;42.632;23.298;2022-07-04T14:13:33;92646.53;;;29.62;54.44
18137;BME280;9194;42.632;23.298;2022-07-04T14:18:34;92639.56;;;29.73;54.94
18137;BME280;9194;42.632;23.298;2022-07-04T14:23:36;92634.22;;;29.61;54.40
18137;BME280;9194;42.632;23.298;2022-07-04T14:28:44;92639.94;;;29.35;53.66
18137;BME280;9194;42.632;23.298;2022-07-04T14:33:45;92633.09;;;29.14;55.16
18137;BME280;9194;42.632;23.298;2022-07-04T14:38:47;92633.66;;;29.31;56.62
18137;BME280;9194;42.632;23.298;2022-07-04T14:43:48;92623.31;;;29.18;54.92
18137;BME280;9194;42.632;23.298;2022-07-04T14:48:49;92628.84;;;29.00;56.47
18137;BME280;9194;42.632;23.298;2022-07-04T14:53:51;92622.19;;;28.94;56.83
18137;BME280;9194;42.632;23.298;2022-07-04T14:58:52;92621.25;;;28.90;57.89
18137;BME280;9194;42.632;23.298;2022-07-04T15:03:54;92617.47;;;29.04;57.27
18137;BME280;9194;42.632;23.298;2022-07-04T15:08:56;92624.97;;;29.10;57.67
18137;BME280;9194;42.632;23.298;2022-07-04T15:13:58;92615.25;;;28.93;55.98
18137;BME280;9194;42.632;23.298;2022-07-04T15:19:00;92615.25;;;28.93;57.64
18137;BME280;9194;42.632;23.298;2022-07-04T15:24:01;92615.66;;;28.83;58.09
18137;BME280;9194;42.632;23.298;2022-07-04T15:29:39;92614.31;;;28.77;59.02
18137;BME280;9194;42.632;23.298;2022-07-04T15:34:42;92607.03;;;28.53;60.56
18137;BME280;9194;42.632;23.298;2022-07-04T15:39:43;92609.31;;;28.43;59.37
18137;BME280;9194;42.632;23.298;2022-07-04T15:44:44;92596.09;;;28.26;60.67
18137;BME280;9194;42.632;23.298;2022-07-04T15:49:46;92611.16;;;28.18;62.00
18137;BME280;9194;42.632;23.298;2022-07-04T15:54:47;92610.63;;;28.04;62.85
18137;BME280;9194;42.632;23.298;2022-07-04T15:59:48;92611.13;;;27.64;65.70
18137;BME280;9194;42.632;23.298;2022-07-04T16:04:50;92614.50;;;27.23;69.18
18137;BME280;9194;42.632;23.298;2022-07-04T16:09:51;92624.44;;;26.85;78.82
18137;BME280;9194;42.632;23.298;2022-07-04T16:14:53;92616.19;;;26.61;82.74
18137;BME280;9194;42.632;23.298;2022-07-04T16:19:54;92630.38;;;26.44;84.07
18137;BME280;9194;42.632;23.298;2022-07-04T16:24:55;92637.91;;;26.33;83.40
18137;BME280;9194;42.632;23.298;2022-07-04T16:30:17;92630.25;;;26.32;82.49
18137;BME280;9194;42.632;23.298;2022-07-04T16:35:19;92634.75;;;26.40;82.95
18137;BME280;9194;42.632;23.298;2022-07-04T16:40:21;92634.28;;;26.46;83.86
18137;BME280;9194;42.632;23.298;2022-07-04T16:45:23;92639.91;;;26.53;76.87
18137;BME280;9194;42.632;23.298;2022-07-04T16:50:24;92644.00;;;26.60;74.53
18137;BME280;9194;42.632;23.298;2022-07-04T16:55:26;92644.28;;;26.58;72.92
18137;BME280;9194;42.632;23.298;2022-07-04T17:00:27;92643.38;;;26.45;71.70
18137;BME280;9194;42.632;23.298;2022-07-04T17:05:29;92648.16;;;26.31;71.12
18137;BME280;9194;42.632;23.298;2022-07-04T17:10:30;92645.31;;;26.10;71.79
18137;BME280;9194;42.632;23.298;2022-07-04T17:15:31;92653.16;;;25.81;76.24
18137;BME280;9194;42.632;23.298;2022-07-04T17:20:34;92660.16;;;25.51;78.67
18137;BME280;9194;42.632;23.298;2022-07-04T17:25:43;92662.94;;;25.20;83.45
18137;BME280;9194;42.632;23.298;2022-07-04T17:30:45;92669.13;;;24.99;85.68
18137;BME280;9194;42.632;23.298;2022-07-04T17:35:47;92669.34;;;24.80;87.14
18137;BME280;9194;42.632;23.298;2022-07-04T17:40:49;92670.28;;;24.53;90.48
18137;BME280;9194;42.632;23.298;2022-07-04T17:46:09;92660.59;;;24.26;92.50
18137;BME280;9194;42.632;23.298;2022-07-04T17:51:10;92654.13;;;23.96;93.75
18137;BME280;9194;42.632;23.298;2022-07-04T17:56:11;92657.13;;;23.81;92.81
18137;BME280;9194;42.632;23.298;2022-07-04T18:01:13;92660.34;;;23.56;92.12
18137;BME280;9194;42.632;23.298;2022-07-04T18:06:14;92655.94;;;23.38;93.53
18137;BME280;9194;42.632;23.298;2022-07-04T18:11:17;92665.31;;;23.21;93.47
18137;BME280;9194;42.632;23.298;2022-07-04T18:16:19;92663.84;;;23.15;92.82
18137;BME280;9194;42.632;23.298;2022-07-04T18:21:20;92668.06;;;23.03;93.09
18137;BME280;9194;42.632;23.298;2022-07-04T18:26:22;92687.44;;;22.89;96.47
18137;BME280;9194;42.632;23.298;2022-07-04T18:31:23;92690.69;;;22.86;96.20
18137;BME280;9194;42.632;23.298;2022-07-04T18:48:59;92686.59;;;22.62;93.27
18137;BME280;9194;42.632;23.298;2022-07-04T18:54:11;92696.75;;;22.60;91.50
18137;BME280;9194;42.632;23.298;2022-07-04T19:05:05;92720.78;;;22.49;94.88
18137;BME280;9194;42.632;23.298;2022-07-04T19:10:06;92714.06;;;22.38;95.25
18137;BME280;9194;42.632;23.298;2022-07-04T19:15:10;92715.03;;;22.29;95.53
18137;BME280;9194;42.632;23.298;2022-07-04T19:20:13;92707.38;;;22.27;95.01
18137;BME280;9194;42.632;23.298;2022-07-04T19:25:15;92713.31;;;22.19;94.73
18137;BME280;9194;42.632;23.298;2022-07-04T19:30:16;92704.97;;;22.12;94.80
18137;BME280;9194;42.632;23.298;2022-07-04T19:35:18;92705.53;;;22.09;94.15
18137;BME280;9194;42.632;23.298;2022-07-04T19:40:23;92703.75;;;22.04;91.21
18137;BME280;9194;42.632;23.298;2022-07-04T19:45:24;92703.38;;;22.11;87.00
18137;BME280;9194;42.632;23.298;2022-07-04T19:50:25;92709.13;;;22.18;85.72
18137;BME280;9194;42.632;23.298;2022-07-04T19:55:28;92700.06;;;22.19;85.44
18137;BME280;9194;42.632;23.298;2022-07-04T20:00:29;92697.72;;;22.18;85.51
18137;BME280;9194;42.632;23.298;2022-07-04T20:05:31;92711.13;;;22.07;88.28
18137;BME280;9194;42.632;23.298;2022-07-04T20:10:32;92714.75;;;21.93;92.38
18137;BME280;9194;42.632;23.298;2022-07-04T20:15:34;92711.25;;;21.79;95.66
18137;BME280;9194;42.632;23.298;2022-07-04T20:20:35;92710.13;;;21.66;98.77
18137;BME280;9194;42.632;23.298;2022-07-04T20:25:37;92719.84;;;21.52;95.15
18137;BME280;9194;42.632;23.298;2022-07-04T20:30:40;92723.22;;;21.76;94.15
18137;BME280;9194;42.632;23.298;2022-07-04T20:35:41;92720.00;;;21.60;97.68
18137;BME280;9194;42.632;23.298;2022-07-04T20:40:43;92722.69;;;21.37;100.00
18137;BME280;9194;42.632;23.298;2022-07-04T20:45:45;92723.66;;;21.22;100.00
18137;BME280;9194;42.632;23.298;2022-07-04T20:50:46;92725.88;;;21.10;100.00
18137;BME280;9194;42.632;23.298;2022-07-04T20:55:48;92714.44;;;20.96;100.00
18137;BME280;9194;42.632;23.298;2022-07-04T21:01:03;92726.94;;;20.90;100.00
18137;BME280;9194;42.632;23.298;2022-07-04T21:06:07;92738.44;;;20.75;100.00
18137;BME280;9194;42.632;23.298;2022-07-04T21:11:09;92728.25;;;20.64;100.00
18137;BME280;9194;42.632;23.298;2022-07-04T21:16:10;92741.50;;;20.59;100.00
18137;BME280;9194;42.632;23.298;2022-07-04T21:21:14;92736.53;;;20.52;100.00
18137;BME280;9194;42.632;23.298;2022-07-04T21:26:16;92737.66;;;20.46;100.00
18137;BME280;9194;42.632;23.298;2022-07-04T21:31:18;92750.13;;;20.40;100.00
18137;BME280;9194;42.632;23.298;2022-07-04T21:36:20;92751.00;;;20.31;100.00
18137;BME280;9194;42.632;23.298;2022-07-04T21:41:21;92751.00;;;20.31;100.00
18137;BME280;9194;42.632;23.298;2022-07-04T21:46:22;92760.06;;;20.20;100.00
18137;BME280;9194;42.632;23.298;2022-07-04T21:51:24;92769.38;;;20.12;100.00
18137;BME280;9194;42.632;23.298;2022-07-04T21:56:25;92758.31;;;20.05;100.00
18137;BME280;9194;42.632;23.298;2022-07-04T22:01:32;92758.38;;;19.95;100.00
18137;BME280;9194;42.632;23.298;2022-07-04T22:06:34;92765.00;;;19.97;100.00
18137;BME280;9194;42.632;23.298;2022-07-04T22:11:35;92770.31;;;19.87;100.00
18137;BME280;9194;42.632;23.298;2022-07-04T22:16:37;92770.63;;;19.86;100.00
18137;BME280;9194;42.632;23.298;2022-07-04T22:21:39;92765.06;;;19.82;100.00
18137;BME280;9194;42.632;23.298;2022-07-04T22:27:07;92778.31;;;19.77;100.00
18137;BME280;9194;42.632;23.298;2022-07-04T22:32:09;92776.19;;;19.79;100.00
18137;BME280;9194;42.632;23.298;2022-07-04T22:37:10;92773.31;;;19.71;100.00
18137;BME280;9194;42.632;23.298;2022-07-04T22:42:11;92775.72;;;19.72;100.00
18137;BME280;9194;42.632;23.298;2022-07-04T22:47:13;92779.97;;;19.68;100.00
18137;BME280;9194;42.632;23.298;2022-07-04T22:52:14;92786.31;;;19.62;100.00
18137;BME280;9194;42.632;23.298;2022-07-04T22:57:15;92786.06;;;19.58;100.00
18137;BME280;9194;42.632;23.298;2022-07-04T23:02:18;92790.09;;;19.51;100.00
18137;BME280;9194;42.632;23.298;2022-07-04T23:07:22;92775.78;;;19.52;100.00
18137;BME280;9194;42.632;23.298;2022-07-04T23:12:24;92772.13;;;19.43;100.00
18137;BME280;9194;42.632;23.298;2022-07-04T23:17:30;92780.03;;;19.43;100.00
18137;BME280;9194;42.632;23.298;2022-07-04T23:22:31;92789.06;;;19.32;99.25
18137;BME280;9194;42.632;23.298;2022-07-04T23:27:32;92794.38;;;19.26;100.00
18137;BME280;9194;42.632;23.298;2022-07-04T23:32:34;92789.09;;;19.26;100.00
18137;BME280;9194;42.632;23.298;2022-07-04T23:37:35;92775.13;;;19.21;100.00
18137;BME280;9194;42.632;23.298;2022-07-04T23:42:36;92775.41;;;19.14;100.00
18137;BME280;9194;42.632;23.298;2022-07-04T23:47:38;92775.66;;;19.13;100.00
18137;BME280;9194;42.632;23.298;2022-07-04T23:52:39;92776.47;;;19.08;100.00
18137;BME280;9194;42.632;23.298;2022-07-04T23:57:41;92773.88;;;19.03;100.00
